Terminal Aerodrome Forecast
Issued by NWS

Home | Current Version | Previous Version | Text Only | Print | Product List | Glossary On
Versions: 1 2 3 4 5 6 7 8 9 10 11 12 13 14 15 16 17
000
FTUS43 KICT 050934 AAC
TAFSLN
TAF AMD
KSLN 050934Z 0510/0606 04010KT P6SM -RA VCTS SCT015 BKN025CB
      TEMPO 0510/0512 VRB10G20KT 2SM +TSRA SCT009 BKN015CB
     FM051600 12010KT P6SM BKN060=

USA.gov is the U.S. government's official web portal to all federal, state and local government web resources and services.